Surigao, Philippines
Current Conditions -  °F | °C
As of 9:00 PM on Friday 26 Dec 2014 (Local Time) from RPVM Reporting Station
Broken Clouds Broken Clouds  
Wind Chill: 82°   Ceiling: 10000
Heat Index: 89°   Visibility: 6mi
Dew Point: 75°   Wind: 9mph
Humidity: 79%   Direction: 20°NNE
Pressure: 29.83"   Gusts: NA
Location:  9.8°N, 125.47°E
Report Text: RPVM 261300Z 02008KT 9999 FEW020 BKN100 28/24 Q1010 RMK A2983
Loading
Personal Weather Stations






























Interactive Weather Map New forecast layout! Learn more

10-Day Weather Forecast

Advertisements
Track Severe Weather on mobile